Roseway — WDB8858 — position and weather

sailwx.info

Track history (hours):
 
Tides and Currents Weather Stations Pressure Air Temp Water Temp Dewpoint Dewpoint Depression Visibility Wind Speed Wind Dir Waves Ship Positions

Roseway

Last pilot schooner in the United States when retired in 1973. Offered teen sailing program through World Ocean School since 2002.

Ship's website: http://www.worldoceanschool.org

Owner: World Ocean School, Boston, MA. More information available from US FCC via Universal Licensing System and Coast Guard Vessel Documentation Center.

Last reported at 2019-Oct-12 21:41 UTC. Time now 2019-Oct-15 21:23 UTC.
Position N 38°53' W 076°25'.

Length 34 m; draft 2 m.

Type: Passenger vessel. MMSI: 366866000.

Date/timePositionNaut miles runAvg speedWind from/ knotsBaromVisibWave heightAir tempDewpointWater temp
2019-Oct-12 21:41N 38°53' W 076°25'0 0.6
2019-Oct-12 21:24N 38°52' W 076°26'1 0.9
2019-Oct-12 20:34N 38°52' W 076°26'4 0.9
2019-Oct-12 16:32N 38°55' W 076°24'0 2.7
2019-Oct-12 16:28N 38°55' W 076°23'1 1.9
2019-Oct-12 16:00N 38°56' W 076°24'1 2.3
2019-Oct-12 15:30N 38°57' W 076°25'1 1.8
2019-Oct-12 14:59N 38°57' W 076°26'1 1.0
2019-Oct-12 14:22N 38°57' W 076°27'1 1.8
2019-Oct-12 14:00N 38°58' W 076°27'1 1.7
2019-Oct-12 13:28N 38°59' W 076°28'0 0.0
2019-Oct-12 12:59N 38°59' W 076°28'0 0.0
2019-Oct-12 12:30N 38°59' W 076°28'0 0.0
2019-Oct-12 12:00N 38°59' W 076°28'0 0.0
2019-Oct-12 11:29N 38°59' W 076°28'0 0.0
2019-Oct-12 10:59N 38°59' W 076°28'0 0.0
2019-Oct-12 10:29N 38°59' W 076°28'0 0.0
2019-Oct-12 09:59N 38°59' W 076°28'0 0.0
2019-Oct-12 09:30N 38°59' W 076°28'0 0.0
2019-Oct-12 08:58N 38°59' W 076°28'0 0.0
2019-Oct-12 08:29N 38°59' W 076°28'0 0.0
2019-Oct-12 07:59N 38°59' W 076°28'0 0.0
2019-Oct-12 07:29N 38°59' W 076°28'0 0.0
2019-Oct-12 06:58N 38°59' W 076°28'0 0.0
2019-Oct-12 06:28N 38°59' W 076°28'0 0.0
2019-Oct-12 05:59N 38°59' W 076°28'0 0.0
2019-Oct-12 05:30N 38°59' W 076°28'0 0.0
2019-Oct-12 05:00N 38°59' W 076°28'0 0.0
2019-Oct-12 04:29N 38°59' W 076°28'0 0.0
2019-Oct-12 03:59N 38°59' W 076°28'0 0.0
2019-Oct-12 03:29N 38°59' W 076°28'0 0.0
2019-Oct-12 02:59N 38°59' W 076°28'0 0.0
2019-Oct-12 02:29N 38°59' W 076°28'0 0.0
2019-Oct-12 01:59N 38°59' W 076°28'0 0.0
2019-Oct-12 01:29N 38°59' W 076°28'0 0.0
2019-Oct-12 00:59N 38°59' W 076°28'0 0.0
2019-Oct-12 00:30N 38°59' W 076°28'0 0.0
2019-Oct-12 00:00N 38°59' W 076°28'0 0.0
2019-Oct-11 23:29N 38°59' W 076°28'0 0.0
2019-Oct-11 22:59N 38°59' W 076°28'0 0.0
2019-Oct-11 22:29N 38°59' W 076°28'0 0.0
2019-Oct-11 21:59N 38°59' W 076°28'0 0.0
2019-Oct-11 21:28N 38°59' W 076°28'0 0.0
2019-Oct-11 21:01N 38°59' W 076°28'0 0.0
2019-Oct-11 20:30N 38°59' W 076°28'0 0.0
2019-Oct-11 20:00N 38°59' W 076°28'0 0.0
2019-Oct-11 19:30N 38°59' W 076°28'0 0.0
2019-Oct-11 19:00N 38°59' W 076°28'0 0.0
2019-Oct-11 18:31N 38°59' W 076°28'0 0.0
2019-Oct-11 18:00N 38°59' W 076°28'0 0.0
2019-Oct-11 17:30N 38°59' W 076°28'0 0.0
2019-Oct-11 17:00N 38°59' W 076°28'0 0.0
2019-Oct-11 16:30N 38°59' W 076°28'0 0.0
2019-Oct-11 16:00N 38°59' W 076°28'0 0.0
2019-Oct-11 15:30N 38°59' W 076°28'0 0.0
2019-Oct-11 15:01N 38°59' W 076°28'0 0.2
2019-Oct-11 14:31N 38°59' W 076°28'3 5.1
2019-Oct-11 14:00N 38°57' W 076°26'1 1.2
2019-Oct-11 13:30N 38°56' W 076°26'3 6.5
2019-Oct-11 13:00N 38°59' W 076°28'3 6.5
2019-Oct-11 12:31N 38°57' W 076°25'1 2.0
2019-Oct-11 12:00N 38°56' W 076°26'1 1.1
2019-Oct-11 11:31N 38°56' W 076°26'0 0.0
2019-Oct-11 11:00N 38°56' W 076°26'0 0.0
2019-Oct-11 10:30N 38°56' W 076°26'0 0.0
2019-Oct-11 10:01N 38°56' W 076°26'0 0.0
2019-Oct-11 09:31N 38°56' W 076°26'0 0.0
2019-Oct-11 09:00N 38°56' W 076°26'0 0.0
2019-Oct-11 08:31N 38°56' W 076°26'0 0.0
2019-Oct-11 08:00N 38°56' W 076°26'0 0.0
2019-Oct-11 07:31N 38°56' W 076°26'0 0.0
2019-Oct-11 07:00N 38°56' W 076°26'0 0.0
2019-Oct-11 06:31N 38°56' W 076°26'0 0.0
2019-Oct-11 06:00N 38°56' W 076°26'0 0.0
2019-Oct-11 05:31N 38°56' W 076°26'0 0.0
2019-Oct-11 05:00N 38°56' W 076°26'0 0.0
2019-Oct-11 04:30N 38°56' W 076°26'0 0.0
2019-Oct-11 04:00N 38°56' W 076°26'0 0.0
2019-Oct-11 03:30N 38°56' W 076°26'0 0.0
2019-Oct-11 03:01N 38°56' W 076°26'0 0.0
2019-Oct-11 02:30N 38°56' W 076°26'0 0.0
2019-Oct-11 02:01N 38°56' W 076°26'0 0.0
2019-Oct-11 01:30N 38°56' W 076°26'0 0.0
2019-Oct-11 01:00N 38°56' W 076°26'0 0.0
2019-Oct-11 00:31N 38°56' W 076°26'0 0.0
2019-Oct-11 00:00N 38°56' W 076°26'0 0.0
2019-Oct-10 23:30N 38°56' W 076°26'0 0.0
2019-Oct-10 23:00N 38°56' W 076°26'0 0.1
2019-Oct-10 22:31N 38°56' W 076°26'2 3.8
2019-Oct-10 22:00N 38°55' W 076°24'2 3.7
2019-Oct-10 21:25N 38°53' W 076°25'2 2.6
2019-Oct-10 20:46N 38°52' W 076°27'  
2019-Oct-08 16:43N 38°55' W 076°25'2 8.5
2019-Oct-08 16:30N 38°57' W 076°25'3 6.0
2019-Oct-08 16:00N 38°59' W 076°23'18 7.2
2019-Oct-08 13:34N 39°15' W 076°34'0 6.9
2019-Oct-08 13:30N 39°15' W 076°34'  
2019-Oct-04 19:50N 39°17' W 076°36'1 3.7
2019-Oct-04 19:30N 39°16' W 076°34'  
Track history (hours):
 
Tides and Currents Weather Stations Pressure Air Temp Water Temp Dewpoint Dewpoint Depression Visibility Wind Speed Wind Dir Waves Ship Positions

Roseway

Last pilot schooner in the United States when retired in 1973. Offered teen sailing program through World Ocean School since 2002.

Ship's website: http://www.worldoceanschool.org

Owner: World Ocean School, Boston, MA. More information available from US FCC via Universal Licensing System and Coast Guard Vessel Documentation Center.

Last reported at 2019-Oct-12 21:41 UTC. Time now 2019-Oct-15 21:23 UTC.
Position N 38°53' W 076°25'.

Length 34 m; draft 2 m.

Type: Passenger vessel. MMSI: 366866000.

Date/timePositionNaut miles runAvg speedWind from/ knotsBaromVisibWave heightAir tempDewpointWater temp
2019-Oct-12 21:41N 38°53' W 076°25'0 0.6
2019-Oct-12 21:24N 38°52' W 076°26'1 0.9
2019-Oct-12 20:34N 38°52' W 076°26'4 0.9
2019-Oct-12 16:32N 38°55' W 076°24'0 2.7
2019-Oct-12 16:28N 38°55' W 076°23'1 1.9
2019-Oct-12 16:00N 38°56' W 076°24'1 2.3
2019-Oct-12 15:30N 38°57' W 076°25'1 1.8
2019-Oct-12 14:59N 38°57' W 076°26'1 1.0
2019-Oct-12 14:22N 38°57' W 076°27'1 1.8
2019-Oct-12 14:00N 38°58' W 076°27'1 1.7
2019-Oct-12 13:28N 38°59' W 076°28'0 0.0
2019-Oct-12 12:59N 38°59' W 076°28'0 0.0
2019-Oct-12 12:30N 38°59' W 076°28'0 0.0
2019-Oct-12 12:00N 38°59' W 076°28'0 0.0
2019-Oct-12 11:29N 38°59' W 076°28'0 0.0
2019-Oct-12 10:59N 38°59' W 076°28'0 0.0
2019-Oct-12 10:29N 38°59' W 076°28'0 0.0
2019-Oct-12 09:59N 38°59' W 076°28'0 0.0
2019-Oct-12 09:30N 38°59' W 076°28'0 0.0
2019-Oct-12 08:58N 38°59' W 076°28'0 0.0
2019-Oct-12 08:29N 38°59' W 076°28'0 0.0
2019-Oct-12 07:59N 38°59' W 076°28'0 0.0
2019-Oct-12 07:29N 38°59' W 076°28'0 0.0
2019-Oct-12 06:58N 38°59' W 076°28'0 0.0
2019-Oct-12 06:28N 38°59' W 076°28'0 0.0
2019-Oct-12 05:59N 38°59' W 076°28'0 0.0
2019-Oct-12 05:30N 38°59' W 076°28'0 0.0
2019-Oct-12 05:00N 38°59' W 076°28'0 0.0
2019-Oct-12 04:29N 38°59' W 076°28'0 0.0
2019-Oct-12 03:59N 38°59' W 076°28'0 0.0
2019-Oct-12 03:29N 38°59' W 076°28'0 0.0
2019-Oct-12 02:59N 38°59' W 076°28'0 0.0
2019-Oct-12 02:29N 38°59' W 076°28'0 0.0
2019-Oct-12 01:59N 38°59' W 076°28'0 0.0
2019-Oct-12 01:29N 38°59' W 076°28'0 0.0
2019-Oct-12 00:59N 38°59' W 076°28'0 0.0
2019-Oct-12 00:30N 38°59' W 076°28'0 0.0
2019-Oct-12 00:00N 38°59' W 076°28'0 0.0
2019-Oct-11 23:29N 38°59' W 076°28'0 0.0
2019-Oct-11 22:59N 38°59' W 076°28'0 0.0
2019-Oct-11 22:29N 38°59' W 076°28'0 0.0
2019-Oct-11 21:59N 38°59' W 076°28'0 0.0
2019-Oct-11 21:28N 38°59' W 076°28'0 0.0
2019-Oct-11 21:01N 38°59' W 076°28'0 0.0
2019-Oct-11 20:30N 38°59' W 076°28'0 0.0
2019-Oct-11 20:00N 38°59' W 076°28'0 0.0
2019-Oct-11 19:30N 38°59' W 076°28'0 0.0
2019-Oct-11 19:00N 38°59' W 076°28'0 0.0
2019-Oct-11 18:31N 38°59' W 076°28'0 0.0
2019-Oct-11 18:00N 38°59' W 076°28'0 0.0
2019-Oct-11 17:30N 38°59' W 076°28'0 0.0
2019-Oct-11 17:00N 38°59' W 076°28'0 0.0
2019-Oct-11 16:30N 38°59' W 076°28'0 0.0
2019-Oct-11 16:00N 38°59' W 076°28'0 0.0
2019-Oct-11 15:30N 38°59' W 076°28'0 0.0
2019-Oct-11 15:01N 38°59' W 076°28'0 0.2
2019-Oct-11 14:31N 38°59' W 076°28'3 5.1
2019-Oct-11 14:00N 38°57' W 076°26'1 1.2
2019-Oct-11 13:30N 38°56' W 076°26'3 6.5
2019-Oct-11 13:00N 38°59' W 076°28'3 6.5
2019-Oct-11 12:31N 38°57' W 076°25'1 2.0
2019-Oct-11 12:00N 38°56' W 076°26'1 1.1
2019-Oct-11 11:31N 38°56' W 076°26'0 0.0
2019-Oct-11 11:00N 38°56' W 076°26'0 0.0
2019-Oct-11 10:30N 38°56' W 076°26'0 0.0
2019-Oct-11 10:01N 38°56' W 076°26'0 0.0
2019-Oct-11 09:31N 38°56' W 076°26'0 0.0
2019-Oct-11 09:00N 38°56' W 076°26'0 0.0
2019-Oct-11 08:31N 38°56' W 076°26'0 0.0
2019-Oct-11 08:00N 38°56' W 076°26'0 0.0
2019-Oct-11 07:31N 38°56' W 076°26'0 0.0
2019-Oct-11 07:00N 38°56' W 076°26'0 0.0
2019-Oct-11 06:31N 38°56' W 076°26'0 0.0
2019-Oct-11 06:00N 38°56' W 076°26'0 0.0
2019-Oct-11 05:31N 38°56' W 076°26'0 0.0
2019-Oct-11 05:00N 38°56' W 076°26'0 0.0
2019-Oct-11 04:30N 38°56' W 076°26'0 0.0
2019-Oct-11 04:00N 38°56' W 076°26'0 0.0
2019-Oct-11 03:30N 38°56' W 076°26'0 0.0
2019-Oct-11 03:01N 38°56' W 076°26'0 0.0
2019-Oct-11 02:30N 38°56' W 076°26'0 0.0
2019-Oct-11 02:01N 38°56' W 076°26'0 0.0
2019-Oct-11 01:30N 38°56' W 076°26'0 0.0
2019-Oct-11 01:00N 38°56' W 076°26'0 0.0
2019-Oct-11 00:31N 38°56' W 076°26'0 0.0
2019-Oct-11 00:00N 38°56' W 076°26'0 0.0
2019-Oct-10 23:30N 38°56' W 076°26'0 0.0
2019-Oct-10 23:00N 38°56' W 076°26'0 0.1
2019-Oct-10 22:31N 38°56' W 076°26'2 3.8
2019-Oct-10 22:00N 38°55' W 076°24'2 3.7
2019-Oct-10 21:25N 38°53' W 076°25'2 2.6
2019-Oct-10 20:46N 38°52' W 076°27'  
2019-Oct-08 16:43N 38°55' W 076°25'2 8.5
2019-Oct-08 16:30N 38°57' W 076°25'3 6.0
2019-Oct-08 16:00N 38°59' W 076°23'18 7.2
2019-Oct-08 13:34N 39°15' W 076°34'0 6.9
2019-Oct-08 13:30N 39°15' W 076°34'  
2019-Oct-04 19:50N 39°17' W 076°36'1 3.7
2019-Oct-04 19:30N 39°16' W 076°34'  

Dump ship's entire track history